createdAt,value
2019-05-02T00:02:33.139Z,11.33
2019-05-02T00:07:35.602Z,10.83
2019-05-02T00:12:38.079Z,11.80
2019-05-02T00:17:40.544Z,11.20
2019-05-02T00:22:42.994Z,12.47
2019-05-02T00:27:45.450Z,11.03
2019-05-02T00:32:47.904Z,11.43
2019-05-02T00:37:50.364Z,11.67
2019-05-02T00:42:53.190Z,12.10
2019-05-02T00:47:58.212Z,11.93
2019-05-02T00:53:00.680Z,12.50
2019-05-02T00:58:03.215Z,11.97
2019-05-02T01:03:05.689Z,13.50
2019-05-02T01:08:08.152Z,14.07
2019-05-02T01:13:14.620Z,12.30
2019-05-02T01:18:13.092Z,12.27
2019-05-02T01:23:15.566Z,11.47
2019-05-02T01:28:18.866Z,11.57
2019-05-02T01:33:23.046Z,11.40
2019-05-02T01:38:26.566Z,12.33
2019-05-02T01:43:30.750Z,11.73
2019-05-02T01:48:33.233Z,12.57
2019-05-02T01:53:35.903Z,14.37
2019-05-02T01:58:38.155Z,11.87
2019-05-02T02:03:45.697Z,12.23
2019-05-02T02:08:43.056Z,13.00
2019-05-02T02:13:45.524Z,13.87
2019-05-02T02:18:50.924Z,13.17
2019-05-02T02:23:53.399Z,12.27
2019-05-02T02:28:55.837Z,13.27
2019-05-02T02:33:58.295Z,12.60
2019-05-02T02:39:07.027Z,12.80
2019-05-02T02:44:12.487Z,12.30
2019-05-02T02:49:21.502Z,12.60
2019-05-02T02:54:17.393Z,11.50
2019-05-02T02:59:26.426Z,12.23
2019-05-02T03:04:22.306Z,11.67
2019-05-02T03:09:26.598Z,12.93
2019-05-02T03:14:27.216Z,12.27
2019-05-02T03:19:29.675Z,12.43
2019-05-02T03:24:36.558Z,12.23
2019-05-02T03:29:41.031Z,13.10
2019-05-02T03:34:47.228Z,12.97
2019-05-02T03:39:39.502Z,16.77
2019-05-02T03:44:42.030Z,13.57
2019-05-02T03:49:48.713Z,12.53
2019-05-02T03:54:52.090Z,13.80
2019-05-02T03:59:49.405Z,12.87
2019-05-02T04:04:54.263Z,13.07
2019-05-02T04:09:54.351Z,13.03
2019-05-02T04:14:57.444Z,13.03
2019-05-02T04:19:59.408Z,12.97
2019-05-02T04:25:01.758Z,15.03
2019-05-02T04:30:11.269Z,14.17
2019-05-02T04:35:06.699Z,13.90
2019-05-02T04:40:12.358Z,12.30
2019-05-02T04:45:25.227Z,13.50
2019-05-02T04:50:18.326Z,12.87
2019-05-02T04:55:26.130Z,12.67
2019-05-02T05:00:19.127Z,12.40
2019-05-02T05:05:25.530Z,13.37
2019-05-02T05:10:24.097Z,13.50
2019-05-02T05:15:37.299Z,13.60
2019-05-02T05:20:29.029Z,14.40
2019-05-02T05:25:34.463Z,14.37
2019-05-02T05:30:44.710Z,15.00
2019-05-02T05:35:43.201Z,15.27
2019-05-02T05:40:41.920Z,15.30
2019-05-02T05:45:53.458Z,14.60
2019-05-02T05:50:47.771Z,17.10
2019-05-02T05:55:53.554Z,16.50
2019-05-02T06:00:55.438Z,17.13
2019-05-02T06:05:54.264Z,16.77
2019-05-02T06:10:56.713Z,19.97
2019-05-02T06:16:02.764Z,22.13
2019-05-02T06:21:03.334Z,21.67
2019-05-02T06:26:07.875Z,23.57
2019-05-02T06:31:07.170Z,23.90
2019-05-02T06:36:09.132Z,22.90
2019-05-02T06:41:11.605Z,23.60
2019-05-02T06:46:16.259Z,25.03
2019-05-02T06:51:19.575Z,25.27
2019-05-02T06:56:19.010Z,26.90
2019-05-02T07:01:22.858Z,24.17
2019-05-02T07:06:24.103Z,26.60
2019-05-02T07:11:26.415Z,27.43
2019-05-02T07:16:41.015Z,28.33
2019-05-02T07:21:43.503Z,26.50
2019-05-02T07:26:45.976Z,26.47
2019-05-02T07:31:48.927Z,28.20
2019-05-02T07:36:50.915Z,28.67
2019-05-02T07:41:53.377Z,28.80
2019-05-02T07:46:57.008Z,27.93
2019-05-02T07:51:58.976Z,28.10
2019-05-02T07:57:02.420Z,33.10
2019-05-02T08:02:03.247Z,35.47
2019-05-02T08:07:05.723Z,33.20
2019-05-02T08:12:08.182Z,35.57
2019-05-02T08:17:16.885Z,38.60
2019-05-02T08:22:14.842Z,38.33
2019-05-02T08:27:23.212Z,43.40
2019-05-02T08:32:24.336Z,40.97
2019-05-02T08:37:26.804Z,40.27
2019-05-02T08:42:32.534Z,38.97
2019-05-02T08:47:31.753Z,38.95
2019-05-02T08:52:36.807Z,38.83
2019-05-02T08:57:36.737Z,38.30
2019-05-02T09:02:41.414Z,36.65
2019-05-02T09:07:43.111Z,35.83
2019-05-02T09:12:45.587Z,34.95
2019-05-02T09:17:52.808Z,36.72
2019-05-02T09:22:52.200Z,35.20
2019-05-02T09:27:52.680Z,35.75
2019-05-02T09:32:57.058Z,35.67
2019-05-02T09:37:56.781Z,34.53
2019-05-02T09:43:02.081Z,34.28
2019-05-02T09:48:07.178Z,34.80
2019-05-02T09:53:04.210Z,39.38
2019-05-02T09:58:10.365Z,43.58
2019-05-02T10:03:09.159Z,39.25
2019-05-02T10:08:13.919Z,35.25
2019-05-02T10:13:14.126Z,35.50
2019-05-02T10:18:19.771Z,34.55
2019-05-02T10:23:19.796Z,31.50
2019-05-02T10:28:22.865Z,29.35
2019-05-02T10:33:27.867Z,30.60
2019-05-02T10:38:26.409Z,35.03
2019-05-02T10:43:28.872Z,34.00
2019-05-02T10:48:33.192Z,36.80
2019-05-02T10:53:33.834Z,34.22
2019-05-02T10:58:36.297Z,33.75
2019-05-02T11:03:45.008Z,26.85
2019-05-02T11:08:45.948Z,26.30
2019-05-02T11:13:46.358Z,25.73
2019-05-02T11:18:55.124Z,23.52
2019-05-02T11:23:57.720Z,22.58
2019-05-02T11:29:00.261Z,21.75
2019-05-02T11:34:02.727Z,21.67
2019-05-02T11:39:17.074Z,20.15
2019-05-02T11:44:07.657Z,18.60
2019-05-02T11:49:12.099Z,19.75
2019-05-02T11:54:13.096Z,19.90
2019-05-02T11:59:15.142Z,21.20
2019-05-02T12:04:17.576Z,20.83
2019-05-02T12:09:24.017Z,19.70
2019-05-02T12:14:27.406Z,19.37
2019-05-02T12:19:28.934Z,20.37
2019-05-02T12:24:31.976Z,19.87
2019-05-02T12:29:33.848Z,20.97
2019-05-02T12:34:36.310Z,21.07
2019-05-02T12:39:38.765Z,19.80
2019-05-02T12:44:42.615Z,18.80
2019-05-02T12:49:43.701Z,19.97
2019-05-02T12:54:46.217Z,17.73
2019-05-02T12:59:48.672Z,18.30
2019-05-02T13:04:52.756Z,20.63
2019-05-02T13:09:53.630Z,22.87
2019-05-02T13:14:56.080Z,17.10
2019-05-02T13:20:01.507Z,14.57
2019-05-02T13:25:02.295Z,14.47
2019-05-02T13:30:03.575Z,12.40
2019-05-02T13:35:12.883Z,17.10
2019-05-02T13:40:22.452Z,9.93
2019-05-02T13:45:38.130Z,8.73
2019-05-02T13:50:42.362Z,10.67
2019-05-02T13:55:43.086Z,11.07
2019-05-02T14:00:45.547Z,8.60
2019-05-02T14:05:50.754Z,9.70
2019-05-02T14:10:59.462Z,7.63
2019-05-02T14:16:02.347Z,7.27
2019-05-02T14:21:04.390Z,10.90
2019-05-02T14:26:06.819Z,8.50
2019-05-02T14:31:09.279Z,8.20
2019-05-02T14:36:11.749Z,6.97
2019-05-02T14:41:14.191Z,9.33
2019-05-02T14:46:19.521Z,9.70
2019-05-02T14:51:27.404Z,8.30
2019-05-02T14:56:37.649Z,9.37
2019-05-02T15:01:35.755Z,10.10
2019-05-02T15:06:42.373Z,10.70
2019-05-02T15:11:59.340Z,11.60
2019-05-02T15:17:02.541Z,12.83
2019-05-02T15:22:04.300Z,11.43
2019-05-02T15:27:11.664Z,13.47
2019-05-02T15:32:09.256Z,13.13
2019-05-02T15:37:12.481Z,15.13
2019-05-02T15:42:17.886Z,14.03
2019-05-02T15:47:16.730Z,13.83
2019-05-02T15:52:24.231Z,13.53
2019-05-02T15:57:25.040Z,13.07
2019-05-02T16:02:27.091Z,12.80
2019-05-02T16:07:29.572Z,18.37
2019-05-02T16:12:35.948Z,10.87
2019-05-02T16:17:34.500Z,9.17
2019-05-02T16:22:38.305Z,9.87
2019-05-02T16:27:45.556Z,10.90
2019-05-02T16:32:52.265Z,11.43
2019-05-02T16:37:55.978Z,15.10
2019-05-02T16:42:55.844Z,15.43
2019-05-02T16:48:00.192Z,16.07
2019-05-02T16:53:02.266Z,17.30
2019-05-02T16:58:07.038Z,18.63
2019-05-02T17:03:05.765Z,18.43
2019-05-02T17:08:10.545Z,19.77
2019-05-02T17:13:12.492Z,19.00
2019-05-02T17:18:17.834Z,23.07
2019-05-02T17:23:15.730Z,18.87
2019-05-02T17:28:18.205Z,18.23
2019-05-02T17:33:21.757Z,17.47
2019-05-02T17:38:24.948Z,16.87
2019-05-02T17:43:25.618Z,18.63
2019-05-02T17:48:29.406Z,16.60
2019-05-02T17:53:33.874Z,17.60
2019-05-02T17:58:33.077Z,17.63
2019-05-02T18:03:35.623Z,17.10
2019-05-02T18:08:38.067Z,24.10
2019-05-02T18:13:42.336Z,16.90
2019-05-02T18:18:46.630Z,27.07
2019-05-02T18:23:45.529Z,21.53
2019-05-02T18:28:49.389Z,26.07
2019-05-02T18:33:52.074Z,22.17
2019-05-02T18:39:00.216Z,23.97
2019-05-02T18:43:55.479Z,24.13
2019-05-02T18:48:59.224Z,26.40
2019-05-02T18:54:04.202Z,28.20
2019-05-02T18:59:03.025Z,31.00
2019-05-02T19:04:05.522Z,32.13
2019-05-02T19:09:08.029Z,33.50
2019-05-02T19:14:11.746Z,33.90
2019-05-02T19:19:13.008Z,35.27
2019-05-02T19:24:15.484Z,34.40
2019-05-02T19:29:26.917Z,34.63
2019-05-02T19:34:29.406Z,35.30
2019-05-02T19:39:32.270Z,32.50
2019-05-02T19:44:34.363Z,29.53
2019-05-02T19:49:36.846Z,31.43
2019-05-02T19:54:41.147Z,32.33
2019-05-02T19:59:43.142Z,30.07
2019-05-02T20:04:44.436Z,29.87
2019-05-02T20:09:47.419Z,30.23
2019-05-02T20:14:49.284Z,31.70
2019-05-02T20:19:52.905Z,40.90
2019-05-02T20:24:58.304Z,40.63
2019-05-02T20:29:56.782Z,38.70
2019-05-02T20:34:59.260Z,38.27
2019-05-02T20:40:02.806Z,41.33
2019-05-02T20:45:04.234Z,40.37
2019-05-02T20:50:06.725Z,39.27
2019-05-02T20:55:09.182Z,49.07
2019-05-02T21:00:23.275Z,39.80
2019-05-02T21:05:22.825Z,39.53
2019-05-02T21:10:32.284Z,41.90
2019-05-02T21:15:33.722Z,41.53
2019-05-02T21:20:36.192Z,39.33
2019-05-02T21:25:38.649Z,39.23
2019-05-02T21:30:41.629Z,43.93
2019-05-02T21:35:43.600Z,40.80
2019-05-02T21:40:46.164Z,54.03
2019-05-02T21:45:48.624Z,46.60
2019-05-02T21:50:51.123Z,46.17
2019-05-02T21:55:56.517Z,46.33
2019-05-02T22:00:58.980Z,46.23
2019-05-02T22:06:01.437Z,45.43
2019-05-02T22:11:03.911Z,46.07
2019-05-02T22:16:06.382Z,49.50
2019-05-02T22:21:08.871Z,48.97
2019-05-02T22:26:12.738Z,48.50
2019-05-02T22:31:13.896Z,46.60
2019-05-02T22:36:16.395Z,50.87
2019-05-02T22:41:18.850Z,47.97
2019-05-02T22:46:39.741Z,47.87
2019-05-02T22:51:42.724Z,52.50
2019-05-02T22:56:44.654Z,50.73
2019-05-02T23:01:47.108Z,51.70
2019-05-02T23:06:49.579Z,52.53
2019-05-02T23:11:52.058Z,55.10
2019-05-02T23:16:54.503Z,58.17
2019-05-02T23:21:57.245Z,54.20
2019-05-02T23:27:17.692Z,55.23
2019-05-02T23:32:23.631Z,53.90
2019-05-02T23:37:22.582Z,55.50
2019-05-02T23:42:25.028Z,53.57
2019-05-02T23:47:27.482Z,56.50
2019-05-02T23:52:31.571Z,54.00
2019-05-02T23:57:32.563Z,55.20
